Time;durP1;ratioP1;P1;durP2;ratioP2;P2;SDS_P1;SDS_P2;PMS_P1;PMS_P2;Temp;Humidity;BMP_temperature;BMP_pressure;BME280_temperature;BME280_humidity;BME280_pressure;Samples;Min_cycle;Max_cycle;Signal;HPM_P1;HPM_P2
2021/08/13 00:00:04;;;;;;;4.97;4.10;;;25.60;57.70;;;;;;6256870;23;20381;-90
2021/08/13 00:03:30;;;;;;;;;;;;;;;;;;;;;
2021/08/13 00:05:27;;;;;;;3.77;3.47;;;25.50;57.70;;;;;;6117723;23;20448;-93
2021/08/13 00:08:10;;;;;;;;;;;;;;;;;;;;;
2021/08/13 00:10:51;;;;;;;4.17;3.70;;;25.60;57.80;;;;;;6139148;23;20397;-93
2021/08/13 00:13:39;;;;;;;;;;;;;;;;;;;;;
2021/08/13 00:19:29;;;;;;;5.00;4.23;;;25.50;57.70;;;;;;6134296;23;20392;-87
2021/08/13 00:22:28;;;;;;;3.57;3.27;;;25.50;57.70;;;;;;6120820;23;20380;-87
2021/08/13 00:25:15;;;;;;;4.20;3.80;;;25.60;57.80;;;;;;6144541;23;20815;-86
2021/08/13 00:28:05;;;;;;;4.10;3.37;;;25.60;57.80;;;;;;6144858;23;20429;-86
2021/08/13 00:30:43;;;;;;;4.67;3.70;;;25.60;57.80;;;;;;6143754;23;20477;-87
2021/08/13 00:33:12;;;;;;;4.03;3.73;;;25.50;57.70;;;;;;6144379;23;20419;-87
2021/08/13 00:35:54;;;;;;;;;;;;;;;;;;;;;
2021/08/13 00:38:31;;;;;;;;;;;;;;;;;;;;;
2021/08/13 00:41:03;;;;;;;3.97;3.57;;;25.50;57.70;;;;;;6161882;23;20397;-87
2021/08/13 00:43:29;;;;;;;3.97;3.57;;;25.60;57.80;;;;;;6209328;23;20385;-87
2021/08/13 00:46:17;;;;;;;;;;;;;;;;;;;;;
2021/08/13 00:48:43;;;;;;;4.23;3.83;;;25.60;57.70;;;;;;6235839;23;20406;-87
2021/08/13 00:51:15;;;;;;;4.10;3.70;;;25.50;57.70;;;;;;6209749;23;20389;-87
2021/08/13 00:56:40;;;;;;;;;;;;;;;;;;;;;
2021/08/13 00:59:14;;;;;;;4.37;3.83;;;25.60;57.80;;;;;;6236753;23;20365;-87
2021/08/13 01:02:06;;;;;;;3.57;3.27;;;25.50;57.70;;;;;;6209964;23;20404;-87
2021/08/13 01:07:42;;;;;;;;;;;;;;;;;;;;;
2021/08/13 01:10:15;;;;;;;4.43;3.83;;;25.50;57.70;;;;;;6236055;23;20723;-87
2021/08/13 01:13:26;;;;;;;;;;;;;;;;;;;;;
2021/08/13 01:16:30;;;;;;;;;;;;;;;;;;;;;
2021/08/13 01:19:28;;;;;;;;;;;;;;;;;;;;;
2021/08/13 01:22:04;;;;;;;4.20;3.80;;;25.50;57.70;;;;;;6212081;23;20378;-87
2021/08/13 01:24:51;;;;;;;5.20;3.90;;;25.50;57.80;;;;;;6209630;23;20457;-87
2021/08/13 01:27:49;;;;;;;;;;;;;;;;;;;;;
2021/08/13 01:30:35;;;;;;;;;;;;;;;;;;;;;
2021/08/13 01:33:35;;;;;;;;;;;;;;;;;;;;;
2021/08/13 01:36:38;;;;;;;;;;;;;;;;;;;;;
2021/08/13 01:39:21;;;;;;;4.20;3.73;;;25.50;57.80;;;;;;6236252;23;20350;-87
2021/08/13 01:42:01;;;;;;;3.60;3.30;;;25.50;57.80;;;;;;6236557;23;20386;-87
2021/08/13 01:44:50;;;;;;;3.70;3.40;;;25.50;57.80;;;;;;6233864;23;20382;-90
2021/08/13 01:47:16;;;;;;;4.23;3.83;;;25.50;57.80;;;;;;6204845;23;20398;-90
2021/08/13 01:49:58;;;;;;;4.70;3.97;;;25.50;57.80;;;;;;6205348;23;20421;-90
2021/08/13 01:52:58;;;;;;;4.00;3.60;;;25.50;57.80;;;;;;6204650;23;20366;-90
2021/08/13 01:55:35;;;;;;;4.37;3.70;;;25.50;57.80;;;;;;6205276;23;20387;-90
2021/08/13 01:58:16;;;;;;;;;;;;;;;;;;;;;
2021/08/13 02:00:56;;;;;;;4.00;3.60;;;25.50;57.80;;;;;;6231864;23;20363;-90
2021/08/13 02:03:22;;;;;;;4.40;4.00;;;25.50;57.80;;;;;;6204331;23;20378;-89
2021/08/13 02:05:57;;;;;;;3.70;3.17;;;25.60;57.80;;;;;;6204265;23;20436;-90
2021/08/13 02:08:27;;;;;;;3.63;3.23;;;25.50;57.80;;;;;;6204943;23;20418;-90
2021/08/13 02:10:56;;;;;;;4.20;3.80;;;25.60;57.80;;;;;;6204958;23;20378;-89
2021/08/13 02:13:30;;;;;;;4.20;3.20;;;25.60;57.80;;;;;;6204018;23;20386;-90
2021/08/13 02:16:07;;;;;;;4.30;3.80;;;25.60;57.70;;;;;;6205136;23;20383;-89
2021/08/13 02:19:06;;;;;;;4.30;3.67;;;25.50;57.70;;;;;;6226543;23;20378;-89
2021/08/13 02:21:52;;;;;;;;;;;;;;;;;;;;;
2021/08/13 02:24:25;;;;;;;3.90;3.60;;;25.60;57.80;;;;;;6231244;23;20355;-90
2021/08/13 02:26:55;;;;;;;4.00;3.70;;;25.50;57.70;;;;;;6204318;23;20370;-90
2021/08/13 02:29:26;;;;;;;4.20;3.80;;;25.50;57.80;;;;;;6205377;23;20428;-90
2021/08/13 02:31:59;;;;;;;5.17;4.10;;;25.50;57.70;;;;;;6206344;23;20453;-90
2021/08/13 02:34:31;;;;;;;4.17;3.47;;;25.50;57.70;;;;;;6233069;23;20347;-90
2021/08/13 02:37:33;;;;;;;4.17;3.57;;;25.60;57.80;;;;;;6230597;23;20377;-90
2021/08/13 02:40:08;;;;;;;3.50;3.20;;;25.50;57.70;;;;;;6207218;23;20373;-89
2021/08/13 02:43:14;;;;;;;;;;;;;;;;;;;;;
2021/08/13 02:45:47;;;;;;;4.17;3.70;;;25.50;57.70;;;;;;6263827;23;20345;-90
2021/08/13 02:48:20;;;;;;;4.20;3.80;;;25.50;57.70;;;;;;6263715;22;20421;-90
2021/08/13 02:50:51;;;;;;;3.47;3.17;;;25.50;57.80;;;;;;6262480;23;20385;-90
2021/08/13 02:53:22;;;;;;;3.73;3.33;;;25.50;57.80;;;;;;6263284;22;20680;-90
2021/08/13 02:56:02;;;;;;;4.00;3.60;;;25.50;57.80;;;;;;6263656;22;20350;-89
2021/08/13 03:01:45;;;;;;;3.83;3.43;;;25.60;57.80;;;;;;6263335;22;20377;-90
2021/08/13 03:04:16;;;;;;;4.10;3.70;;;25.50;57.70;;;;;;6262621;23;20389;-89
2021/08/13 03:06:54;;;;;;;4.67;4.27;;;25.50;57.80;;;;;;6263944;22;20380;-89
2021/08/13 03:12:43;;;;;;;5.83;3.80;;;25.50;57.70;;;;;;6262834;23;20405;-90
2021/08/13 03:15:17;;;;;;;4.40;4.00;;;25.50;57.80;;;;;;6237476;23;20381;-90
2021/08/13 03:17:47;;;;;;;4.10;3.70;;;25.50;57.80;;;;;;6262780;22;20368;-90
2021/08/13 03:20:16;;;;;;;4.07;3.67;;;25.50;57.80;;;;;;6262709;22;20422;-90
2021/08/13 03:22:45;;;;;;;4.97;3.67;;;25.50;57.80;;;;;;6288216;22;20445;-90
2021/08/13 03:25:16;;;;;;;3.77;3.13;;;25.50;57.80;;;;;;6261991;23;20385;-90
2021/08/13 03:27:48;;;;;;;4.17;3.60;;;25.50;57.80;;;;;;6261570;23;20377;-90
2021/08/13 03:30:23;;;;;;;4.40;3.33;;;25.50;57.70;;;;;;6262161;23;20384;-90
2021/08/13 03:32:56;;;;;;;4.23;3.83;;;25.50;57.70;;;;;;6261422;23;20427;-89
2021/08/13 03:36:08;;;;;;;4.17;3.77;;;25.50;57.70;;;;;;6263919;22;20357;-90
2021/08/13 03:38:39;;;;;;;4.33;3.93;;;25.60;57.80;;;;;;6262237;23;20382;-90
2021/08/13 03:41:10;;;;;;;4.20;3.60;;;25.50;57.80;;;;;;6256138;23;20410;-90
2021/08/13 03:43:38;;;;;;;4.10;3.70;;;25.50;57.80;;;;;;6206536;23;20442;-90
2021/08/13 03:46:06;;;;;;;4.60;3.70;;;25.50;57.80;;;;;;6205955;23;20389;-90
2021/08/13 03:48:42;;;;;;;4.47;4.07;;;25.50;57.70;;;;;;6206897;23;20938;-90
2021/08/13 03:51:11;;;;;;;4.90;4.40;;;25.50;57.80;;;;;;6206286;23;20386;-90
2021/08/13 03:53:42;;;;;;;4.37;3.97;;;25.50;57.80;;;;;;6205517;23;20740;-89
2021/08/13 03:56:11;;;;;;;3.93;3.53;;;25.50;57.70;;;;;;6206294;23;20848;-89
2021/08/13 03:58:59;;;;;;;4.30;3.50;;;25.50;57.70;;;;;;6205085;23;20386;-89
2021/08/13 04:01:27;;;;;;;4.07;3.67;;;25.50;57.70;;;;;;6206309;23;20866;-90
2021/08/13 04:04:05;;;;;;;4.90;4.20;;;25.50;57.80;;;;;;6231326;23;20394;-90
2021/08/13 04:06:48;;;;;;;5.47;4.47;;;25.50;57.80;;;;;;6232729;23;20385;-90
2021/08/13 04:09:32;;;;;;;;;;;;;;;;;;;;;
2021/08/13 04:12:07;;;;;;;4.93;4.43;;;25.50;57.80;;;;;;6233146;23;20350;-89
2021/08/13 04:14:37;;;;;;;4.40;3.80;;;25.50;57.80;;;;;;6205849;23;20377;-89
2021/08/13 04:17:17;;;;;;;4.37;3.83;;;25.50;57.80;;;;;;6206045;23;20379;-89
2021/08/13 04:19:48;;;;;;;3.57;3.27;;;25.50;57.80;;;;;;6206188;23;20752;-90
2021/08/13 04:22:18;;;;;;;5.07;4.23;;;25.50;57.80;;;;;;6206634;23;20378;-90
2021/08/13 04:24:47;;;;;;;4.73;4.13;;;25.50;57.80;;;;;;6232301;23;20382;-89
2021/08/13 04:30:33;;;;;;;;;;;;;;;;;;;;;
2021/08/13 04:33:35;;;;;;;4.33;3.93;;;25.50;57.80;;;;;;6231682;23;20417;-89
2021/08/13 04:36:06;;;;;;;4.90;4.40;;;25.50;57.80;;;;;;6168297;23;20888;-89
2021/08/13 04:38:42;;;;;;;4.40;4.00;;;25.50;57.80;;;;;;6231433;23;20346;-89
2021/08/13 04:41:13;;;;;;;4.27;3.87;;;25.50;57.80;;;;;;6231596;23;20386;-90
2021/08/13 04:43:49;;;;;;;6.40;4.07;;;25.50;57.80;;;;;;6204855;23;20374;-90
2021/08/13 04:46:31;;;;;;;;;;;;;;;;;;;;;
2021/08/13 04:49:25;;;;;;;4.63;4.13;;;25.50;57.80;;;;;;6231871;23;20434;-90
2021/08/13 04:58:47;;;;;;;4.30;3.90;;;25.50;57.80;;;;;;6110209;23;20365;-89
2021/08/13 05:01:31;;;;;;;;;;;;;;;;;;;;;
2021/08/13 05:04:11;;;;;;;;;;;;;;;;;;;;;
2021/08/13 05:06:57;;;;;;;4.33;3.93;;;25.50;57.90;;;;;;6110862;23;20370;-90
2021/08/13 05:09:37;;;;;;;4.43;4.03;;;25.50;57.90;;;;;;6109993;23;20429;-90
2021/08/13 05:12:09;;;;;;;5.00;4.23;;;25.50;57.90;;;;;;6111161;23;20381;-90
2021/08/13 05:15:30;;;;;;;;;;;;;;;;;;;;;
2021/08/13 05:18:14;;;;;;;5.10;4.60;;;25.50;57.80;;;;;;6018425;23;20744;-90
2021/08/13 05:21:06;;;;;;;5.20;4.70;;;25.50;57.90;;;;;;6110143;23;20413;-89
2021/08/13 05:23:56;;;;;;;3.90;3.37;;;25.50;57.90;;;;;;6110086;23;20382;-89
2021/08/13 05:26:51;;;;;;;5.03;4.53;;;25.50;57.80;;;;;;6110759;23;20526;-89
2021/08/13 05:36:11;;;;;;;4.70;4.30;;;25.50;57.80;;;;;;6110076;23;20369;-89
2021/08/13 05:38:52;;;;;;;;;;;;;;;;;;;;;
2021/08/13 05:44:40;;;;;;;;;;;;;;;;;;;;;
2021/08/13 05:47:25;;;;;;;4.40;3.70;;;25.50;57.80;;;;;;6110868;23;20351;-90
2021/08/13 05:56:26;;;;;;;5.00;4.60;;;25.50;57.80;;;;;;6109840;23;20378;-90
2021/08/13 05:59:03;;;;;;;5.10;4.60;;;25.50;57.80;;;;;;6086566;23;20386;-90
2021/08/13 06:02:10;;;;;;;4.70;4.30;;;25.50;57.80;;;;;;6111163;23;20392;-90
2021/08/13 06:05:09;;;;;;;4.97;4.57;;;25.50;57.80;;;;;;6110547;23;20498;-90
2021/08/13 06:55:09;;;;;;;5.40;4.90;;;25.50;57.90;;;;;;5807916;24;20400;-93
2021/08/13 06:58:10;;;;;;;5.67;5.17;;;25.40;57.90;;;;;;5858517;24;20687;-93
2021/08/13 07:01:43;;;;;;;;;;;;;;;;;;;;;
2021/08/13 07:07:42;;;;;;;7.07;5.30;;;25.50;57.90;;;;;;5934306;24;20461;-88
2021/08/13 07:11:12;;;;;;;;;;;;;;;;;;;;;
2021/08/13 07:38:28;;;;;;;6.17;5.43;;;25.60;58.00;;;;;;5847112;24;20385;-89
2021/08/13 07:42:36;;;;;;;;;;;;;;;;;;;;;
2021/08/13 08:16:17;;;;;;;;;;;;;;;;;;;;;
2021/08/13 08:19:18;;;;;;;7.03;5.73;;;25.80;58.20;;;;;;5800251;24;20415;-88
2021/08/13 08:21:58;;;;;;;6.03;5.43;;;25.80;58.20;;;;;;5769168;24;20405;-84
2021/08/13 08:32:12;;;;;;;6.70;6.10;;;25.80;58.20;;;;;;5759555;25;20396;-85
2021/08/13 08:49:08;;;;;;;5.20;4.70;;;25.90;58.10;;;;;;5949611;24;20459;-84
2021/08/13 08:52:36;;;;;;;;;;;;;;;;;;;;;
2021/08/13 09:26:33;;;;;;;5.77;5.17;;;26.00;58.10;;;;;;5977521;23;20430;-85
2021/08/13 09:32:50;;;;;;;5.53;5.13;;;26.10;58.10;;;;;;6003768;23;20459;-85
2021/08/13 09:39:08;;;;;;;4.73;4.20;;;26.10;58.10;;;;;;6016097;23;20411;-85
2021/08/13 09:45:53;;;;;;;;;;;;;;;;;;;;;
2021/08/13 09:51:56;;;;;;;5.00;4.53;;;26.10;58.10;;;;;;5911564;23;20478;-84
2021/08/13 09:55:12;;;;;;;5.40;4.63;;;26.10;58.10;;;;;;5845178;24;20408;-85
2021/08/13 10:01:33;;;;;;;5.07;4.60;;;26.20;58.10;;;;;;5864872;24;20353;-86
2021/08/13 10:11:15;;;;;;;4.50;3.93;;;26.20;58.10;;;;;;5865828;24;20373;-86
2021/08/13 10:14:26;;;;;;;4.90;3.87;;;26.10;58.00;;;;;;5862937;24;20417;-86
2021/08/13 10:20:59;;;;;;;5.83;4.83;;;26.20;58.10;;;;;;5809221;24;20367;-87
2021/08/13 10:23:37;;;;;;;4.87;4.13;;;26.20;58.00;;;;;;5827583;24;20398;-84
2021/08/13 10:26:03;;;;;;;6.10;5.20;;;26.10;58.10;;;;;;5842657;24;20417;-83
2021/08/13 10:28:50;;;;;;;6.03;5.33;;;26.10;58.00;;;;;;5857358;24;20430;-88
2021/08/13 10:38:09;;;;;;;6.50;5.23;;;26.10;58.00;;;;;;5841920;24;20381;-88
2021/08/13 10:40:54;;;;;;;7.20;6.03;;;26.10;58.10;;;;;;5858349;24;20523;-88
2021/08/13 10:43:38;;;;;;;5.77;5.23;;;26.10;58.10;;;;;;5856562;24;20732;-87
2021/08/13 10:46:33;;;;;;;5.90;5.33;;;26.10;58.10;;;;;;5834617;24;20394;-88
2021/08/13 10:56:08;;;;;;;;;;;;;;;;;;;;;
2021/08/13 10:58:58;;;;;;;6.17;5.00;;;26.10;58.20;;;;;;6045839;23;20438;-89
2021/08/13 11:01:30;;;;;;;6.00;5.50;;;26.10;58.20;;;;;;6026147;23;20404;-88
2021/08/13 11:03:59;;;;;;;5.70;5.20;;;26.10;58.20;;;;;;6002556;23;20380;-88
2021/08/13 11:06:58;;;;;;;6.13;5.30;;;26.10;58.20;;;;;;6002995;23;20385;-87
2021/08/13 11:09:42;;;;;;;6.33;5.77;;;26.10;58.10;;;;;;6044486;23;20589;-86
2021/08/13 11:12:19;;;;;;;5.93;5.17;;;26.10;58.20;;;;;;6085684;23;20391;-87
2021/08/13 11:18:40;;;;;;;;;;;;;;;;;;;;;
2021/08/13 11:21:49;;;;;;;6.47;5.40;;;26.10;58.20;;;;;;6084911;23;20379;-88
2021/08/13 11:24:57;;;;;;;6.93;6.33;;;26.10;58.30;;;;;;6084314;23;20492;-87
2021/08/13 11:28:05;;;;;;;;;;;;;;;;;;;;;
2021/08/13 11:31:09;;;;;;;;;;;;;;;;;;;;;
2021/08/13 11:33:50;;;;;;;6.50;5.90;;;26.00;58.30;;;;;;5999862;24;20389;-87
2021/08/13 11:36:54;;;;;;;6.70;6.10;;;26.00;58.30;;;;;;6000173;24;20377;-87
2021/08/13 11:43:16;;;;;;;6.57;5.80;;;26.00;58.30;;;;;;5972702;24;20877;-87
2021/08/13 11:52:28;;;;;;;6.10;5.50;;;26.00;58.30;;;;;;5917061;24;20722;-87
2021/08/13 11:54:58;;;;;;;8.17;6.33;;;26.00;58.40;;;;;;5872280;24;20407;-87
2021/08/13 12:00:47;;;;;;;6.93;6.33;;;26.00;58.40;;;;;;5943153;24;20378;-87
2021/08/13 12:03:24;;;;;;;6.13;5.60;;;26.00;58.40;;;;;;5942903;24;20387;-88
2021/08/13 12:05:51;;;;;;;6.63;5.93;;;26.00;58.40;;;;;;5944975;24;20415;-88
2021/08/13 12:08:17;;;;;;;6.47;5.83;;;26.00;58.30;;;;;;5923348;24;20427;-88
2021/08/13 12:10:53;;;;;;;6.53;5.90;;;26.00;58.30;;;;;;6004670;23;20390;-88
2021/08/13 12:13:23;;;;;;;5.27;4.67;;;26.00;58.30;;;;;;6034222;23;20384;-88
2021/08/13 12:15:59;;;;;;;5.97;5.47;;;26.00;58.30;;;;;;6056454;23;20450;-86
2021/08/13 12:18:56;;;;;;;6.30;5.80;;;26.00;58.30;;;;;;6055230;23;20443;-86
2021/08/13 12:21:25;;;;;;;6.90;6.20;;;26.00;58.20;;;;;;6056057;23;20376;-87
2021/08/13 12:23:58;;;;;;;7.03;6.37;;;26.00;58.30;;;;;;6066663;23;20462;-87
2021/08/13 12:26:29;;;;;;;6.93;5.70;;;26.00;58.30;;;;;;6179109;23;20386;-87
2021/08/13 12:28:58;;;;;;;6.67;6.03;;;26.00;58.30;;;;;;6245989;23;20471;-87
2021/08/13 12:31:30;;;;;;;7.07;5.90;;;26.00;58.30;;;;;;6261961;23;20381;-86
2021/08/13 12:34:04;;;;;;;9.17;6.10;;;26.00;58.30;;;;;;6261116;23;20484;-86
2021/08/13 12:36:43;;;;;;;6.93;6.33;;;26.00;58.30;;;;;;6261963;23;20377;-85
2021/08/13 12:39:11;;;;;;;6.33;5.73;;;26.00;58.30;;;;;;6261622;23;20854;-87
2021/08/13 12:41:37;;;;;;;6.90;6.20;;;26.00;58.30;;;;;;6261709;22;20382;-87
2021/08/13 12:44:27;;;;;;;6.93;6.17;;;26.00;58.20;;;;;;6261265;23;20389;-85
2021/08/13 12:47:15;;;;;;;6.97;6.10;;;26.00;58.20;;;;;;6261358;23;20472;-87
2021/08/13 12:49:54;;;;;;;7.87;6.30;;;26.00;58.20;;;;;;6261330;23;20444;-87
2021/08/13 12:53:21;;;;;;;6.13;5.63;;;26.00;58.30;;;;;;6260546;23;20374;-87
2021/08/13 12:55:53;;;;;;;8.23;6.93;;;26.00;58.30;;;;;;6259166;23;20377;-87
2021/08/13 12:58:33;;;;;;;8.10;7.07;;;26.00;58.50;;;;;;6262587;22;20424;-87
2021/08/13 13:01:47;;;;;;;8.43;6.60;;;26.00;58.50;;;;;;6262510;23;20392;-87
2021/08/13 13:04:26;;;;;;;;;;;;;;;;;;;;;
2021/08/13 13:18:13;;;;;;;7.70;6.90;;;26.00;58.60;;;;;;6168539;23;20400;-87
2021/08/13 13:21:04;;;;;;;6.80;6.20;;;25.90;58.60;;;;;;6123438;23;20380;-87
2021/08/13 13:24:24;;;;;;;8.23;7.23;;;26.00;58.80;;;;;;6168289;23;20372;-87
2021/08/13 13:34:53;;;;;;;;;;;;;;;;;;;;;
2021/08/13 13:41:22;;;;;;;;;;;;;;;;;;;;;
2021/08/13 13:54:25;;;;;;;;;;;;;;;;;;;;;
2021/08/13 13:57:11;;;;;;;6.80;6.00;;;26.10;58.90;;;;;;5993129;24;20397;-89
2021/08/13 14:00:30;;;;;;;;;;;;;;;;;;;;;
2021/08/13 14:06:29;;;;;;;8.50;7.67;;;26.10;58.90;;;;;;6033422;23;20387;-90
2021/08/13 14:09:08;;;;;;;;;;;;;;;;;;;;;
2021/08/13 14:11:52;;;;;;;;;;;;;;;;;;;;;
2021/08/13 14:21:19;;;;;;;;;;;;;;;;;;;;;
2021/08/13 14:27:54;;;;;;;;;;;;;;;;;;;;;
2021/08/13 16:15:18;;;;;;;;;;;;;;;;;;;;;
2021/08/13 16:18:03;;;;;;;;;;;;;;;;;;;;;
2021/08/13 16:24:31;;;;;;;6.47;5.87;;;26.40;59.00;;;;;;5905023;24;20377;-89
2021/08/13 16:27:38;;;;;;;6.17;5.63;;;26.40;59.00;;;;;;5950842;24;20398;-88
2021/08/13 16:30:28;;;;;;;6.60;5.63;;;26.40;59.00;;;;;;5960537;24;20433;-88
2021/08/13 16:33:51;;;;;;;;;;;;;;;;;;;;;
2021/08/13 17:19:53;;;;;;;;;;;;;;;;;;;;;
2021/08/13 17:23:02;;;;;;;;;;;;;;;;;;;;;
2021/08/13 17:36:01;;;;;;;;;;;;;;;;;;;;;
2021/08/13 17:55:16;;;;;;;;;;;;;;;;;;;;;
2021/08/13 17:58:11;;;;;;;7.00;6.40;;;26.30;59.20;;;;;;5898980;24;20407;-87
2021/08/13 18:08:03;;;;;;;17.77;7.47;;;26.30;59.20;;;;;;6043655;23;20407;-87
2021/08/13 18:14:38;;;;;;;11.73;7.03;;;26.30;59.10;;;;;;6085604;23;20374;-86
2021/08/13 18:18:00;;;;;;;;;;;;;;;;;;;;;
2021/08/13 18:31:03;;;;;;;6.80;6.10;;;26.20;59.10;;;;;;6085709;23;20366;-83
2021/08/13 18:41:23;;;;;;;;;;;;;;;;;;;;;
2021/08/13 20:42:34;;;;;;;;;;;;;;;;;;;;;
2021/08/13 21:40:28;;;;;;;9.13;7.57;;;26.00;60.10;;;;;;5913076;24;20375;-93
2021/08/13 21:43:49;;;;;;;7.27;6.57;;;26.00;60.20;;;;;;5976274;23;20452;-94
2021/08/13 21:53:46;;;;;;;;;;;;;;;;;;;;;
2021/08/13 23:17:41;;;;;;;;;;;;;;;;;;;;;
2021/08/13 23:51:34;;;;;;;7.23;6.30;;;26.20;59.60;;;;;;5859859;24;20435;-93
